sensor_id;sensor_type;location;lat;lon;timestamp;temperature;humidity
7240;DHT22;3661;53.288;10.458;2022-08-03T00:00:38;21.70;96.50
7240;DHT22;3661;53.288;10.458;2022-08-03T00:03:10;21.70;96.50
7240;DHT22;3661;53.288;10.458;2022-08-03T00:05:43;21.70;96.60
7240;DHT22;3661;53.288;10.458;2022-08-03T00:08:15;21.60;96.50
7240;DHT22;3661;53.288;10.458;2022-08-03T00:10:48;21.60;96.50
7240;DHT22;3661;53.288;10.458;2022-08-03T00:13:20;21.60;96.60
7240;DHT22;3661;53.288;10.458;2022-08-03T00:15:53;21.60;96.60
7240;DHT22;3661;53.288;10.458;2022-08-03T00:18:25;21.60;96.50
7240;DHT22;3661;53.288;10.458;2022-08-03T00:20:57;21.60;96.40
7240;DHT22;3661;53.288;10.458;2022-08-03T00:23:29;21.60;96.60
7240;DHT22;3661;53.288;10.458;2022-08-03T00:26:03;21.60;96.50
7240;DHT22;3661;53.288;10.458;2022-08-03T00:28:36;21.60;96.50
7240;DHT22;3661;53.288;10.458;2022-08-03T00:31:08;21.50;96.60
7240;DHT22;3661;53.288;10.458;2022-08-03T00:33:40;21.60;96.70
7240;DHT22;3661;53.288;10.458;2022-08-03T00:36:14;21.50;97.40
7240;DHT22;3661;53.288;10.458;2022-08-03T00:38:47;21.50;97.40
7240;DHT22;3661;53.288;10.458;2022-08-03T00:41:20;21.50;97.60
7240;DHT22;3661;53.288;10.458;2022-08-03T00:43:53;21.50;97.90
7240;DHT22;3661;53.288;10.458;2022-08-03T00:46:25;21.50;98.10
7240;DHT22;3661;53.288;10.458;2022-08-03T00:48:57;21.40;98.50
7240;DHT22;3661;53.288;10.458;2022-08-03T00:51:29;21.40;98.90
7240;DHT22;3661;53.288;10.458;2022-08-03T00:54:02;21.40;99.10
7240;DHT22;3661;53.288;10.458;2022-08-03T00:56:36;21.40;99.30
7240;DHT22;3661;53.288;10.458;2022-08-03T00:59:09;21.30;99.40
7240;DHT22;3661;53.288;10.458;2022-08-03T01:01:41;21.20;99.70
7240;DHT22;3661;53.288;10.458;2022-08-03T01:04:13;21.20;99.90
7240;DHT22;3661;53.288;10.458;2022-08-03T01:06:51;21.10;99.90
7240;DHT22;3661;53.288;10.458;2022-08-03T01:09:32;21.00;99.90
7240;DHT22;3661;53.288;10.458;2022-08-03T01:12:15;21.00;99.90
7240;DHT22;3661;53.288;10.458;2022-08-03T01:14:54;20.90;99.90
7240;DHT22;3661;53.288;10.458;2022-08-03T01:17:34;20.80;99.90
7240;DHT22;3661;53.288;10.458;2022-08-03T01:20:10;20.80;99.90
7240;DHT22;3661;53.288;10.458;2022-08-03T01:23:01;20.80;99.90
7240;DHT22;3661;53.288;10.458;2022-08-03T01:28:57;20.60;99.90
7240;DHT22;3661;53.288;10.458;2022-08-03T01:31:40;20.60;99.90
7240;DHT22;3661;53.288;10.458;2022-08-03T01:34:15;20.50;99.90
7240;DHT22;3661;53.288;10.458;2022-08-03T01:36:50;20.50;99.90
7240;DHT22;3661;53.288;10.458;2022-08-03T01:39:25;20.40;99.90
7240;DHT22;3661;53.288;10.458;2022-08-03T01:42:00;20.40;99.90
7240;DHT22;3661;53.288;10.458;2022-08-03T01:44:39;20.30;99.90
7240;DHT22;3661;53.288;10.458;2022-08-03T01:47:18;20.30;99.90
7240;DHT22;3661;53.288;10.458;2022-08-03T01:49:51;20.30;99.90
7240;DHT22;3661;53.288;10.458;2022-08-03T01:52:24;20.20;99.90
7240;DHT22;3661;53.288;10.458;2022-08-03T01:54:59;20.20;99.90
7240;DHT22;3661;53.288;10.458;2022-08-03T01:57:33;20.20;99.90
7240;DHT22;3661;53.288;10.458;2022-08-03T02:00:07;20.10;99.90
7240;DHT22;3661;53.288;10.458;2022-08-03T02:02:43;20.10;99.90
7240;DHT22;3661;53.288;10.458;2022-08-03T02:05:16;20.10;99.90
7240;DHT22;3661;53.288;10.458;2022-08-03T02:07:50;20.00;99.90
7240;DHT22;3661;53.288;10.458;2022-08-03T02:10:23;20.00;99.90
7240;DHT22;3661;53.288;10.458;2022-08-03T02:12:58;20.00;99.90
7240;DHT22;3661;53.288;10.458;2022-08-03T02:15:33;20.00;99.90
7240;DHT22;3661;53.288;10.458;2022-08-03T02:18:09;20.00;99.90
7240;DHT22;3661;53.288;10.458;2022-08-03T02:20:42;19.90;99.90
7240;DHT22;3661;53.288;10.458;2022-08-03T02:23:15;19.90;99.90
7240;DHT22;3661;53.288;10.458;2022-08-03T02:25:51;19.90;99.90
7240;DHT22;3661;53.288;10.458;2022-08-03T02:28:29;19.80;99.90
7240;DHT22;3661;53.288;10.458;2022-08-03T02:31:06;19.80;99.90
7240;DHT22;3661;53.288;10.458;2022-08-03T02:33:48;19.80;99.90
7240;DHT22;3661;53.288;10.458;2022-08-03T02:36:26;19.70;99.90
7240;DHT22;3661;53.288;10.458;2022-08-03T02:39:00;19.70;99.90
7240;DHT22;3661;53.288;10.458;2022-08-03T02:41:36;19.70;99.90
7240;DHT22;3661;53.288;10.458;2022-08-03T02:44:10;19.70;99.90
7240;DHT22;3661;53.288;10.458;2022-08-03T02:46:45;19.60;99.90
7240;DHT22;3661;53.288;10.458;2022-08-03T02:49:20;19.60;99.90
7240;DHT22;3661;53.288;10.458;2022-08-03T02:51:54;19.50;99.90
7240;DHT22;3661;53.288;10.458;2022-08-03T02:54:27;19.50;99.90
7240;DHT22;3661;53.288;10.458;2022-08-03T02:57:01;19.50;99.90
7240;DHT22;3661;53.288;10.458;2022-08-03T02:59:34;19.40;99.90
7240;DHT22;3661;53.288;10.458;2022-08-03T03:02:08;19.50;99.90
7240;DHT22;3661;53.288;10.458;2022-08-03T03:04:43;19.40;99.90
7240;DHT22;3661;53.288;10.458;2022-08-03T03:07:16;19.40;99.90
7240;DHT22;3661;53.288;10.458;2022-08-03T03:09:49;19.30;99.90
7240;DHT22;3661;53.288;10.458;2022-08-03T03:12:21;19.30;99.90
7240;DHT22;3661;53.288;10.458;2022-08-03T03:14:54;19.30;99.90
7240;DHT22;3661;53.288;10.458;2022-08-03T03:17:27;19.30;99.90
7240;DHT22;3661;53.288;10.458;2022-08-03T03:20:02;19.20;99.90
7240;DHT22;3661;53.288;10.458;2022-08-03T03:22:35;19.20;99.90
7240;DHT22;3661;53.288;10.458;2022-08-03T03:25:09;19.20;99.90
7240;DHT22;3661;53.288;10.458;2022-08-03T03:27:42;19.20;99.90
7240;DHT22;3661;53.288;10.458;2022-08-03T03:30:14;19.10;99.90
7240;DHT22;3661;53.288;10.458;2022-08-03T03:32:47;19.10;99.90
7240;DHT22;3661;53.288;10.458;2022-08-03T03:35:21;19.10;99.90
7240;DHT22;3661;53.288;10.458;2022-08-03T03:37:54;19.10;99.90
7240;DHT22;3661;53.288;10.458;2022-08-03T03:40:26;19.10;99.90
7240;DHT22;3661;53.288;10.458;2022-08-03T03:42:59;19.00;99.90
7240;DHT22;3661;53.288;10.458;2022-08-03T03:45:33;19.00;99.90
7240;DHT22;3661;53.288;10.458;2022-08-03T03:48:06;19.00;99.90
7240;DHT22;3661;53.288;10.458;2022-08-03T03:50:40;19.00;99.90
7240;DHT22;3661;53.288;10.458;2022-08-03T03:53:13;19.00;99.90
7240;DHT22;3661;53.288;10.458;2022-08-03T03:55:45;19.00;99.90
7240;DHT22;3661;53.288;10.458;2022-08-03T03:58:17;19.00;99.90
7240;DHT22;3661;53.288;10.458;2022-08-03T04:00:50;18.90;99.90
7240;DHT22;3661;53.288;10.458;2022-08-03T04:03:23;18.90;99.90
7240;DHT22;3661;53.288;10.458;2022-08-03T04:05:57;18.90;99.90
7240;DHT22;3661;53.288;10.458;2022-08-03T04:08:46;18.90;99.90
7240;DHT22;3661;53.288;10.458;2022-08-03T04:11:48;18.90;99.90
7240;DHT22;3661;53.288;10.458;2022-08-03T04:14:28;18.90;99.90
7240;DHT22;3661;53.288;10.458;2022-08-03T04:17:04;18.90;99.90
7240;DHT22;3661;53.288;10.458;2022-08-03T04:19:41;18.90;99.90
7240;DHT22;3661;53.288;10.458;2022-08-03T04:22:18;18.90;99.90
7240;DHT22;3661;53.288;10.458;2022-08-03T04:24:54;19.00;99.90
7240;DHT22;3661;53.288;10.458;2022-08-03T04:27:31;19.00;99.90
7240;DHT22;3661;53.288;10.458;2022-08-03T04:30:06;19.00;99.90
7240;DHT22;3661;53.288;10.458;2022-08-03T04:32:40;19.00;99.90
7240;DHT22;3661;53.288;10.458;2022-08-03T04:35:16;19.00;99.90
7240;DHT22;3661;53.288;10.458;2022-08-03T04:37:51;19.10;99.90
7240;DHT22;3661;53.288;10.458;2022-08-03T04:40:30;19.10;99.90
7240;DHT22;3661;53.288;10.458;2022-08-03T04:43:04;19.10;99.90
7240;DHT22;3661;53.288;10.458;2022-08-03T04:45:37;19.20;99.90
7240;DHT22;3661;53.288;10.458;2022-08-03T04:48:10;19.20;99.90
7240;DHT22;3661;53.288;10.458;2022-08-03T04:50:42;19.30;99.90
7240;DHT22;3661;53.288;10.458;2022-08-03T04:53:16;19.40;99.90
7240;DHT22;3661;53.288;10.458;2022-08-03T04:55:48;19.40;99.90
7240;DHT22;3661;53.288;10.458;2022-08-03T04:58:20;19.50;99.90
7240;DHT22;3661;53.288;10.458;2022-08-03T05:00:52;19.60;99.90
7240;DHT22;3661;53.288;10.458;2022-08-03T05:03:24;19.70;99.90
7240;DHT22;3661;53.288;10.458;2022-08-03T05:05:56;19.70;99.90
7240;DHT22;3661;53.288;10.458;2022-08-03T05:08:30;19.80;99.90
7240;DHT22;3661;53.288;10.458;2022-08-03T05:11:02;19.80;99.90
7240;DHT22;3661;53.288;10.458;2022-08-03T05:13:34;19.90;99.90
7240;DHT22;3661;53.288;10.458;2022-08-03T05:16:06;19.90;99.90
7240;DHT22;3661;53.288;10.458;2022-08-03T05:18:38;19.90;99.90
7240;DHT22;3661;53.288;10.458;2022-08-03T05:21:11;19.90;99.90
7240;DHT22;3661;53.288;10.458;2022-08-03T05:23:45;20.00;99.90
7240;DHT22;3661;53.288;10.458;2022-08-03T05:26:17;20.00;99.90
7240;DHT22;3661;53.288;10.458;2022-08-03T05:28:50;20.10;99.90
7240;DHT22;3661;53.288;10.458;2022-08-03T05:31:22;20.10;99.90
7240;DHT22;3661;53.288;10.458;2022-08-03T05:33:56;20.20;99.90
7240;DHT22;3661;53.288;10.458;2022-08-03T05:36:28;20.30;99.90
7240;DHT22;3661;53.288;10.458;2022-08-03T05:39:02;20.40;99.90
7240;DHT22;3661;53.288;10.458;2022-08-03T05:41:34;20.50;99.90
7240;DHT22;3661;53.288;10.458;2022-08-03T05:44:06;20.60;99.90
7240;DHT22;3661;53.288;10.458;2022-08-03T05:46:40;20.70;99.90
7240;DHT22;3661;53.288;10.458;2022-08-03T05:49:13;20.70;99.90
7240;DHT22;3661;53.288;10.458;2022-08-03T05:51:45;20.80;99.90
7240;DHT22;3661;53.288;10.458;2022-08-03T05:54:19;20.90;99.90
7240;DHT22;3661;53.288;10.458;2022-08-03T05:56:52;21.00;99.90
7240;DHT22;3661;53.288;10.458;2022-08-03T05:59:26;21.10;99.90
7240;DHT22;3661;53.288;10.458;2022-08-03T06:02:00;21.20;99.90
7240;DHT22;3661;53.288;10.458;2022-08-03T06:04:32;21.30;99.90
7240;DHT22;3661;53.288;10.458;2022-08-03T06:07:04;21.40;99.90
7240;DHT22;3661;53.288;10.458;2022-08-03T06:09:38;21.50;99.90
7240;DHT22;3661;53.288;10.458;2022-08-03T06:12:11;21.60;99.90
7240;DHT22;3661;53.288;10.458;2022-08-03T06:14:43;21.70;99.90
7240;DHT22;3661;53.288;10.458;2022-08-03T06:17:15;21.70;99.90
7240;DHT22;3661;53.288;10.458;2022-08-03T06:19:47;21.80;99.90
7240;DHT22;3661;53.288;10.458;2022-08-03T06:22:19;21.90;99.90
7240;DHT22;3661;53.288;10.458;2022-08-03T06:24:53;22.00;99.90
7240;DHT22;3661;53.288;10.458;2022-08-03T06:27:25;22.00;99.90
7240;DHT22;3661;53.288;10.458;2022-08-03T06:29:57;22.10;99.90
7240;DHT22;3661;53.288;10.458;2022-08-03T06:32:29;22.20;99.90
7240;DHT22;3661;53.288;10.458;2022-08-03T06:35:02;22.30;99.90
7240;DHT22;3661;53.288;10.458;2022-08-03T06:37:42;22.40;99.90
7240;DHT22;3661;53.288;10.458;2022-08-03T06:40:18;22.40;99.90
7240;DHT22;3661;53.288;10.458;2022-08-03T06:42:50;22.50;99.90
7240;DHT22;3661;53.288;10.458;2022-08-03T06:45:22;22.60;99.90
7240;DHT22;3661;53.288;10.458;2022-08-03T06:48:00;22.70;99.90
7240;DHT22;3661;53.288;10.458;2022-08-03T06:50:34;22.80;99.90
7240;DHT22;3661;53.288;10.458;2022-08-03T06:53:07;22.80;99.90
7240;DHT22;3661;53.288;10.458;2022-08-03T06:55:41;22.90;99.90
7240;DHT22;3661;53.288;10.458;2022-08-03T06:58:13;22.90;99.90
7240;DHT22;3661;53.288;10.458;2022-08-03T07:00:45;23.00;99.90
7240;DHT22;3661;53.288;10.458;2022-08-03T07:03:17;23.10;99.90
7240;DHT22;3661;53.288;10.458;2022-08-03T07:05:50;23.20;99.90
7240;DHT22;3661;53.288;10.458;2022-08-03T07:08:22;23.20;99.90
7240;DHT22;3661;53.288;10.458;2022-08-03T07:10:56;23.30;99.90
7240;DHT22;3661;53.288;10.458;2022-08-03T07:13:31;23.40;99.90
7240;DHT22;3661;53.288;10.458;2022-08-03T07:16:03;23.50;99.90
7240;DHT22;3661;53.288;10.458;2022-08-03T07:18:37;23.60;99.90
7240;DHT22;3661;53.288;10.458;2022-08-03T07:21:09;23.70;99.90
7240;DHT22;3661;53.288;10.458;2022-08-03T07:23:42;23.70;99.90
7240;DHT22;3661;53.288;10.458;2022-08-03T07:26:16;23.80;99.90
7240;DHT22;3661;53.288;10.458;2022-08-03T07:28:48;23.90;99.90
7240;DHT22;3661;53.288;10.458;2022-08-03T07:31:20;24.00;99.90
7240;DHT22;3661;53.288;10.458;2022-08-03T07:33:52;24.10;99.90
7240;DHT22;3661;53.288;10.458;2022-08-03T07:36:27;24.20;99.90
7240;DHT22;3661;53.288;10.458;2022-08-03T07:38:59;24.30;99.90
7240;DHT22;3661;53.288;10.458;2022-08-03T07:41:32;24.40;99.90
7240;DHT22;3661;53.288;10.458;2022-08-03T07:44:04;24.50;99.90
7240;DHT22;3661;53.288;10.458;2022-08-03T07:46:36;24.60;99.90
7240;DHT22;3661;53.288;10.458;2022-08-03T07:49:08;24.70;99.90
7240;DHT22;3661;53.288;10.458;2022-08-03T07:51:41;24.90;99.90
7240;DHT22;3661;53.288;10.458;2022-08-03T07:54:13;25.00;99.90
7240;DHT22;3661;53.288;10.458;2022-08-03T07:56:46;25.10;99.90
7240;DHT22;3661;53.288;10.458;2022-08-03T07:59:18;25.20;99.90
7240;DHT22;3661;53.288;10.458;2022-08-03T08:01:50;25.30;99.90
7240;DHT22;3661;53.288;10.458;2022-08-03T08:04:23;25.40;99.90
7240;DHT22;3661;53.288;10.458;2022-08-03T08:06:56;25.60;99.90
7240;DHT22;3661;53.288;10.458;2022-08-03T08:09:28;25.70;99.90
7240;DHT22;3661;53.288;10.458;2022-08-03T08:12:02;25.80;99.70
7240;DHT22;3661;53.288;10.458;2022-08-03T08:14:34;25.90;99.60
7240;DHT22;3661;53.288;10.458;2022-08-03T08:17:07;26.10;99.50
7240;DHT22;3661;53.288;10.458;2022-08-03T08:19:39;26.20;98.70
7240;DHT22;3661;53.288;10.458;2022-08-03T08:22:11;26.30;98.90
7240;DHT22;3661;53.288;10.458;2022-08-03T08:24:43;26.40;98.70
7240;DHT22;3661;53.288;10.458;2022-08-03T08:27:19;26.60;99.10
7240;DHT22;3661;53.288;10.458;2022-08-03T08:29:51;26.70;98.40
7240;DHT22;3661;53.288;10.458;2022-08-03T08:32:23;26.90;99.20
7240;DHT22;3661;53.288;10.458;2022-08-03T08:34:55;27.10;99.20
7240;DHT22;3661;53.288;10.458;2022-08-03T08:37:27;27.30;98.80
7240;DHT22;3661;53.288;10.458;2022-08-03T08:40:00;27.50;99.20
7240;DHT22;3661;53.288;10.458;2022-08-03T08:42:33;27.70;99.90
7240;DHT22;3661;53.288;10.458;2022-08-03T08:45:09;27.90;99.90
7240;DHT22;3661;53.288;10.458;2022-08-03T08:47:44;28.10;98.70
7240;DHT22;3661;53.288;10.458;2022-08-03T08:50:18;28.40;99.10
7240;DHT22;3661;53.288;10.458;2022-08-03T08:52:52;28.60;98.60
7240;DHT22;3661;53.288;10.458;2022-08-03T08:55:24;28.90;99.30
7240;DHT22;3661;53.288;10.458;2022-08-03T08:58:01;29.20;99.60
7240;DHT22;3661;53.288;10.458;2022-08-03T09:00:35;29.50;99.00
7240;DHT22;3661;53.288;10.458;2022-08-03T09:03:08;29.70;99.50
7240;DHT22;3661;53.288;10.458;2022-08-03T09:05:41;29.90;98.00
7240;DHT22;3661;53.288;10.458;2022-08-03T09:08:14;30.10;98.20
7240;DHT22;3661;53.288;10.458;2022-08-03T09:10:46;30.30;97.10
7240;DHT22;3661;53.288;10.458;2022-08-03T09:13:20;30.50;97.10
7240;DHT22;3661;53.288;10.458;2022-08-03T09:16:13;30.70;97.20
7240;DHT22;3661;53.288;10.458;2022-08-03T09:18:47;30.90;98.30
7240;DHT22;3661;53.288;10.458;2022-08-03T09:21:21;31.20;98.10
7240;DHT22;3661;53.288;10.458;2022-08-03T09:23:55;31.30;95.70
7240;DHT22;3661;53.288;10.458;2022-08-03T09:26:28;31.50;96.80
7240;DHT22;3661;53.288;10.458;2022-08-03T09:29:05;31.60;95.00
7240;DHT22;3661;53.288;10.458;2022-08-03T09:31:39;31.70;95.30
7240;DHT22;3661;53.288;10.458;2022-08-03T09:34:12;31.80;94.00
7240;DHT22;3661;53.288;10.458;2022-08-03T09:36:47;31.90;94.20
7240;DHT22;3661;53.288;10.458;2022-08-03T09:39:20;31.90;94.10
7240;DHT22;3661;53.288;10.458;2022-08-03T09:42:05;32.00;93.30
7240;DHT22;3661;53.288;10.458;2022-08-03T09:44:40;32.10;93.20
7240;DHT22;3661;53.288;10.458;2022-08-03T09:47:14;32.30;94.70
7240;DHT22;3661;53.288;10.458;2022-08-03T09:49:56;32.50;94.50
7240;DHT22;3661;53.288;10.458;2022-08-03T09:52:32;32.60;93.90
7240;DHT22;3661;53.288;10.458;2022-08-03T09:55:08;32.60;91.80
7240;DHT22;3661;53.288;10.458;2022-08-03T09:57:40;32.70;92.30
7240;DHT22;3661;53.288;10.458;2022-08-03T10:00:17;32.80;92.40
7240;DHT22;3661;53.288;10.458;2022-08-03T10:03:02;33.00;93.40
7240;DHT22;3661;53.288;10.458;2022-08-03T10:05:35;33.30;94.00
7240;DHT22;3661;53.288;10.458;2022-08-03T10:08:14;33.60;94.40
7240;DHT22;3661;53.288;10.458;2022-08-03T10:10:47;33.90;94.70
7240;DHT22;3661;53.288;10.458;2022-08-03T10:13:21;34.10;91.20
7240;DHT22;3661;53.288;10.458;2022-08-03T10:15:55;34.20;90.10
7240;DHT22;3661;53.288;10.458;2022-08-03T10:18:27;34.30;91.30
7240;DHT22;3661;53.288;10.458;2022-08-03T10:21:03;34.50;90.40
7240;DHT22;3661;53.288;10.458;2022-08-03T10:23:37;34.80;90.80
7240;DHT22;3661;53.288;10.458;2022-08-03T10:26:12;34.90;88.10
7240;DHT22;3661;53.288;10.458;2022-08-03T10:28:49;34.90;87.90
7240;DHT22;3661;53.288;10.458;2022-08-03T10:31:25;35.00;88.00
7240;DHT22;3661;53.288;10.458;2022-08-03T10:34:01;35.00;84.60
7240;DHT22;3661;53.288;10.458;2022-08-03T10:36:36;35.00;87.50
7240;DHT22;3661;53.288;10.458;2022-08-03T10:39:09;35.00;88.10
7240;DHT22;3661;53.288;10.458;2022-08-03T10:41:44;35.20;89.40
7240;DHT22;3661;53.288;10.458;2022-08-03T10:44:18;35.30;86.50
7240;DHT22;3661;53.288;10.458;2022-08-03T10:46:52;35.40;85.00
7240;DHT22;3661;53.288;10.458;2022-08-03T10:49:25;35.40;89.00
7240;DHT22;3661;53.288;10.458;2022-08-03T10:51:58;35.70;88.30
7240;DHT22;3661;53.288;10.458;2022-08-03T10:54:40;35.80;86.30
7240;DHT22;3661;53.288;10.458;2022-08-03T10:57:49;36.00;87.80
7240;DHT22;3661;53.288;10.458;2022-08-03T11:00:24;36.20;87.50
7240;DHT22;3661;53.288;10.458;2022-08-03T11:03:11;36.40;86.90
7240;DHT22;3661;53.288;10.458;2022-08-03T11:05:45;36.60;85.30
7240;DHT22;3661;53.288;10.458;2022-08-03T11:08:29;36.80;84.30
7240;DHT22;3661;53.288;10.458;2022-08-03T11:13:57;36.90;79.10
7240;DHT22;3661;53.288;10.458;2022-08-03T11:16:32;37.00;80.80
7240;DHT22;3661;53.288;10.458;2022-08-03T11:19:07;37.20;84.30
7240;DHT22;3661;53.288;10.458;2022-08-03T11:21:56;37.40;85.10
7240;DHT22;3661;53.288;10.458;2022-08-03T11:24:56;37.60;80.60
7240;DHT22;3661;53.288;10.458;2022-08-03T11:27:30;37.70;84.00
7240;DHT22;3661;53.288;10.458;2022-08-03T11:30:05;37.90;82.50
7240;DHT22;3661;53.288;10.458;2022-08-03T11:32:51;38.10;80.90
7240;DHT22;3661;53.288;10.458;2022-08-03T11:35:27;38.20;79.30
7240;DHT22;3661;53.288;10.458;2022-08-03T11:38:05;38.20;77.30
7240;DHT22;3661;53.288;10.458;2022-08-03T11:40:42;38.30;80.60
7240;DHT22;3661;53.288;10.458;2022-08-03T11:43:42;38.40;76.40
7240;DHT22;3661;53.288;10.458;2022-08-03T11:46:15;38.40;77.40
7240;DHT22;3661;53.288;10.458;2022-08-03T11:48:51;38.50;79.50
7240;DHT22;3661;53.288;10.458;2022-08-03T11:51:30;38.80;78.20
7240;DHT22;3661;53.288;10.458;2022-08-03T11:54:05;38.90;78.70
7240;DHT22;3661;53.288;10.458;2022-08-03T11:56:45;38.90;75.30
7240;DHT22;3661;53.288;10.458;2022-08-03T11:59:17;39.10;80.30
7240;DHT22;3661;53.288;10.458;2022-08-03T12:02:05;39.30;75.90
7240;DHT22;3661;53.288;10.458;2022-08-03T12:04:49;39.40;75.60
7240;DHT22;3661;53.288;10.458;2022-08-03T12:07:22;39.60;74.70
7240;DHT22;3661;53.288;10.458;2022-08-03T12:10:06;39.70;75.10
7240;DHT22;3661;53.288;10.458;2022-08-03T12:12:40;39.80;74.30
7240;DHT22;3661;53.288;10.458;2022-08-03T12:15:15;40.00;74.20
7240;DHT22;3661;53.288;10.458;2022-08-03T12:17:49;40.00;73.70
7240;DHT22;3661;53.288;10.458;2022-08-03T12:20:23;40.20;73.10
7240;DHT22;3661;53.288;10.458;2022-08-03T12:23:02;40.10;70.20
7240;DHT22;3661;53.288;10.458;2022-08-03T12:25:35;39.90;68.40
7240;DHT22;3661;53.288;10.458;2022-08-03T12:28:10;39.80;69.60
7240;DHT22;3661;53.288;10.458;2022-08-03T12:30:43;39.80;70.30
7240;DHT22;3661;53.288;10.458;2022-08-03T12:33:21;39.90;71.60
7240;DHT22;3661;53.288;10.458;2022-08-03T12:36:05;40.10;70.00
7240;DHT22;3661;53.288;10.458;2022-08-03T12:38:38;40.20;73.10
7240;DHT22;3661;53.288;10.458;2022-08-03T12:41:11;40.30;70.10
7240;DHT22;3661;53.288;10.458;2022-08-03T12:43:47;40.40;71.70
7240;DHT22;3661;53.288;10.458;2022-08-03T12:46:19;40.40;67.70
7240;DHT22;3661;53.288;10.458;2022-08-03T12:49:13;40.30;70.60
7240;DHT22;3661;53.288;10.458;2022-08-03T12:51:57;40.30;67.90
7240;DHT22;3661;53.288;10.458;2022-08-03T12:54:31;40.30;67.10
7240;DHT22;3661;53.288;10.458;2022-08-03T12:57:06;40.20;67.30
7240;DHT22;3661;53.288;10.458;2022-08-03T12:59:40;40.10;67.60
7240;DHT22;3661;53.288;10.458;2022-08-03T13:02:14;40.20;69.20
7240;DHT22;3661;53.288;10.458;2022-08-03T13:04:48;40.20;65.80
7240;DHT22;3661;53.288;10.458;2022-08-03T13:07:21;40.10;67.60
7240;DHT22;3661;53.288;10.458;2022-08-03T13:09:55;40.10;66.40
7240;DHT22;3661;53.288;10.458;2022-08-03T13:12:27;40.00;66.00
7240;DHT22;3661;53.288;10.458;2022-08-03T13:15:01;39.90;65.50
7240;DHT22;3661;53.288;10.458;2022-08-03T13:17:34;39.70;64.80
7240;DHT22;3661;53.288;10.458;2022-08-03T13:20:07;39.70;66.00
7240;DHT22;3661;53.288;10.458;2022-08-03T13:22:39;39.70;66.20
7240;DHT22;3661;53.288;10.458;2022-08-03T13:25:14;39.80;66.20
7240;DHT22;3661;53.288;10.458;2022-08-03T13:27:46;39.80;66.30
7240;DHT22;3661;53.288;10.458;2022-08-03T13:30:18;39.90;65.60
7240;DHT22;3661;53.288;10.458;2022-08-03T13:32:50;39.80;67.60
7240;DHT22;3661;53.288;10.458;2022-08-03T13:35:22;39.90;67.00
7240;DHT22;3661;53.288;10.458;2022-08-03T13:37:55;40.10;68.00
7240;DHT22;3661;53.288;10.458;2022-08-03T13:40:29;40.20;65.50
7240;DHT22;3661;53.288;10.458;2022-08-03T13:43:01;40.30;67.00
7240;DHT22;3661;53.288;10.458;2022-08-03T13:45:34;40.20;65.50
7240;DHT22;3661;53.288;10.458;2022-08-03T13:48:06;40.10;65.10
7240;DHT22;3661;53.288;10.458;2022-08-03T13:50:38;40.10;65.20
7240;DHT22;3661;53.288;10.458;2022-08-03T13:53:10;40.00;65.90
7240;DHT22;3661;53.288;10.458;2022-08-03T13:55:45;40.10;67.10
7240;DHT22;3661;53.288;10.458;2022-08-03T13:58:17;40.20;65.70
7240;DHT22;3661;53.288;10.458;2022-08-03T14:00:50;40.30;66.00
7240;DHT22;3661;53.288;10.458;2022-08-03T14:03:22;40.40;67.10
7240;DHT22;3661;53.288;10.458;2022-08-03T14:05:54;40.60;64.50
7240;DHT22;3661;53.288;10.458;2022-08-03T14:08:26;40.50;64.50
7240;DHT22;3661;53.288;10.458;2022-08-03T14:10:59;40.40;64.30
7240;DHT22;3661;53.288;10.458;2022-08-03T14:13:31;40.30;63.90
7240;DHT22;3661;53.288;10.458;2022-08-03T14:16:04;40.10;63.20
7240;DHT22;3661;53.288;10.458;2022-08-03T14:18:37;39.90;63.50
7240;DHT22;3661;53.288;10.458;2022-08-03T14:21:09;39.80;64.10
7240;DHT22;3661;53.288;10.458;2022-08-03T14:23:41;39.60;64.30
7240;DHT22;3661;53.288;10.458;2022-08-03T14:26:14;39.60;65.00
7240;DHT22;3661;53.288;10.458;2022-08-03T14:28:48;39.60;65.20
7240;DHT22;3661;53.288;10.458;2022-08-03T14:31:20;39.70;65.40
7240;DHT22;3661;53.288;10.458;2022-08-03T14:33:54;39.60;65.30
7240;DHT22;3661;53.288;10.458;2022-08-03T14:36:26;39.50;64.80
7240;DHT22;3661;53.288;10.458;2022-08-03T14:38:58;39.50;65.00
7240;DHT22;3661;53.288;10.458;2022-08-03T14:41:32;39.30;64.50
7240;DHT22;3661;53.288;10.458;2022-08-03T14:44:04;39.30;65.00
7240;DHT22;3661;53.288;10.458;2022-08-03T14:46:36;39.50;65.40
7240;DHT22;3661;53.288;10.458;2022-08-03T14:49:08;39.50;63.90
7240;DHT22;3661;53.288;10.458;2022-08-03T14:51:41;39.30;64.00
7240;DHT22;3661;53.288;10.458;2022-08-03T14:54:14;39.30;64.90
7240;DHT22;3661;53.288;10.458;2022-08-03T14:56:48;39.40;64.10
7240;DHT22;3661;53.288;10.458;2022-08-03T14:59:20;39.40;64.00
7240;DHT22;3661;53.288;10.458;2022-08-03T15:01:52;39.50;64.60
7240;DHT22;3661;53.288;10.458;2022-08-03T15:04:25;39.60;63.90
7240;DHT22;3661;53.288;10.458;2022-08-03T15:06:57;39.50;63.60
7240;DHT22;3661;53.288;10.458;2022-08-03T15:09:29;39.50;64.00
7240;DHT22;3661;53.288;10.458;2022-08-03T15:12:03;39.60;64.20
7240;DHT22;3661;53.288;10.458;2022-08-03T15:14:35;39.60;63.70
7240;DHT22;3661;53.288;10.458;2022-08-03T15:17:07;39.60;62.90
7240;DHT22;3661;53.288;10.458;2022-08-03T15:19:39;39.60;62.90
7240;DHT22;3661;53.288;10.458;2022-08-03T15:22:12;39.60;61.90
7240;DHT22;3661;53.288;10.458;2022-08-03T15:24:45;39.60;61.90
7240;DHT22;3661;53.288;10.458;2022-08-03T15:27:18;39.60;62.70
7240;DHT22;3661;53.288;10.458;2022-08-03T15:29:50;39.60;62.90
7240;DHT22;3661;53.288;10.458;2022-08-03T15:32:22;39.60;62.60
7240;DHT22;3661;53.288;10.458;2022-08-03T15:34:54;39.50;62.00
7240;DHT22;3661;53.288;10.458;2022-08-03T15:37:27;39.30;62.40
7240;DHT22;3661;53.288;10.458;2022-08-03T15:39:59;39.20;62.50
7240;DHT22;3661;53.288;10.458;2022-08-03T15:42:32;39.00;62.10
7240;DHT22;3661;53.288;10.458;2022-08-03T15:45:05;38.80;62.10
7240;DHT22;3661;53.288;10.458;2022-08-03T15:47:38;38.70;62.60
7240;DHT22;3661;53.288;10.458;2022-08-03T15:50:10;38.60;63.10
7240;DHT22;3661;53.288;10.458;2022-08-03T15:52:42;38.60;63.20
7240;DHT22;3661;53.288;10.458;2022-08-03T15:55:15;38.60;63.00
7240;DHT22;3661;53.288;10.458;2022-08-03T15:57:48;38.60;63.00
7240;DHT22;3661;53.288;10.458;2022-08-03T16:00:21;38.60;63.30
7240;DHT22;3661;53.288;10.458;2022-08-03T16:02:53;38.60;63.00
7240;DHT22;3661;53.288;10.458;2022-08-03T16:05:27;38.60;62.30
7240;DHT22;3661;53.288;10.458;2022-08-03T16:07:59;38.60;61.90
7240;DHT22;3661;53.288;10.458;2022-08-03T16:10:31;38.70;61.90
7240;DHT22;3661;53.288;10.458;2022-08-03T16:13:04;38.80;62.60
7240;DHT22;3661;53.288;10.458;2022-08-03T16:15:38;38.80;62.60
7240;DHT22;3661;53.288;10.458;2022-08-03T16:18:10;38.80;62.60
7240;DHT22;3661;53.288;10.458;2022-08-03T16:20:42;38.70;62.10
7240;DHT22;3661;53.288;10.458;2022-08-03T16:23:16;38.60;62.50
7240;DHT22;3661;53.288;10.458;2022-08-03T16:25:52;38.50;62.90
7240;DHT22;3661;53.288;10.458;2022-08-03T16:28:25;38.40;63.00
7240;DHT22;3661;53.288;10.458;2022-08-03T16:30:58;38.30;63.10
7240;DHT22;3661;53.288;10.458;2022-08-03T16:33:31;38.10;63.20
7240;DHT22;3661;53.288;10.458;2022-08-03T16:36:04;38.00;63.40